createdAt,value
2022-10-28T00:00:33.032Z,0
2022-10-28T00:01:33.021Z,0
2022-10-28T00:02:33.020Z,0
2022-10-28T00:03:33.004Z,0
2022-10-28T00:04:32.990Z,0
2022-10-28T00:05:32.980Z,0
2022-10-28T00:06:32.974Z,0
2022-10-28T00:07:32.961Z,0
2022-10-28T00:08:32.950Z,0
2022-10-28T00:09:32.937Z,0
2022-10-28T00:10:32.926Z,0
2022-10-28T00:11:32.913Z,0
2022-10-28T00:12:32.899Z,0
2022-10-28T00:13:32.888Z,0
2022-10-28T00:14:32.901Z,0
2022-10-28T00:15:32.865Z,0
2022-10-28T00:16:32.863Z,0
2022-10-28T00:17:32.856Z,0
2022-10-28T00:18:32.833Z,0
2022-10-28T00:19:32.827Z,0
2022-10-28T00:20:32.814Z,0
2022-10-28T00:21:32.818Z,0
2022-10-28T00:22:32.790Z,0
2022-10-28T00:23:32.790Z,0
2022-10-28T00:24:32.772Z,0
2022-10-28T00:25:32.759Z,0
2022-10-28T00:26:32.747Z,0
2022-10-28T00:27:32.738Z,0
2022-10-28T00:28:32.731Z,0
2022-10-28T00:29:32.723Z,0
2022-10-28T00:30:32.701Z,0
2022-10-28T00:31:32.693Z,0
2022-10-28T00:32:32.688Z,0
2022-10-28T00:33:32.667Z,0
2022-10-28T00:34:32.662Z,0
2022-10-28T00:35:32.653Z,0
2022-10-28T00:36:32.639Z,0
2022-10-28T00:37:32.628Z,0
2022-10-28T00:38:32.614Z,0
2022-10-28T00:39:32.603Z,0
2022-10-28T00:40:32.591Z,0
2022-10-28T00:41:32.582Z,0
2022-10-28T00:42:32.572Z,0
2022-10-28T00:43:32.571Z,0
2022-10-28T00:44:32.544Z,0
2022-10-28T00:45:32.533Z,0
2022-10-28T00:46:32.526Z,0
2022-10-28T00:47:32.530Z,0
2022-10-28T00:48:32.503Z,0
2022-10-28T00:49:32.523Z,0
2022-10-28T00:50:32.480Z,0
2022-10-28T00:51:32.470Z,0
2022-10-28T00:52:32.480Z,0
2022-10-28T00:53:32.450Z,0
2022-10-28T00:54:32.438Z,0
2022-10-28T00:55:32.426Z,0
2022-10-28T00:56:32.414Z,0
2022-10-28T00:57:32.414Z,0
2022-10-28T00:58:32.391Z,0
2022-10-28T00:59:32.384Z,0
2022-10-28T01:00:32.369Z,0
2022-10-28T01:01:32.359Z,0
2022-10-28T01:02:32.397Z,0
2022-10-28T01:03:32.339Z,0
2022-10-28T01:04:32.332Z,0
2022-10-28T01:05:32.311Z,0
2022-10-28T01:06:32.302Z,0
2022-10-28T01:07:32.291Z,0
2022-10-28T01:08:32.290Z,0
2022-10-28T01:09:32.275Z,0
2022-10-28T01:10:32.260Z,0
2022-10-28T01:11:32.251Z,0
2022-10-28T01:12:32.235Z,0
2022-10-28T01:13:32.234Z,0
2022-10-28T01:14:32.223Z,0
2022-10-28T01:15:32.215Z,0
2022-10-28T01:16:32.195Z,0
2022-10-28T01:17:32.184Z,0
2022-10-28T01:18:32.169Z,0
2022-10-28T01:19:32.173Z,0
2022-10-28T01:20:32.153Z,0
2022-10-28T01:21:32.166Z,0
2022-10-28T01:23:32.131Z,0
2022-10-28T01:24:32.104Z,0
2022-10-28T01:25:32.096Z,0
2022-10-28T01:26:32.085Z,0
2022-10-28T01:27:32.082Z,0
2022-10-28T01:28:32.063Z,0
2022-10-28T01:29:32.051Z,0
2022-10-28T01:30:32.039Z,0
2022-10-28T01:31:32.026Z,0
2022-10-28T01:32:32.020Z,0
2022-10-28T01:33:32.008Z,0
2022-10-28T01:34:32.012Z,0
2022-10-28T01:35:31.983Z,0
2022-10-28T01:36:31.978Z,0
2022-10-28T01:37:31.969Z,0
2022-10-28T01:38:31.949Z,0
2022-10-28T01:39:31.939Z,0
2022-10-28T01:40:31.945Z,0
2022-10-28T01:41:31.920Z,0
2022-10-28T01:42:31.906Z,0
2022-10-28T01:43:31.900Z,0
2022-10-28T01:44:31.887Z,0
2022-10-28T01:45:31.877Z,0
2022-10-28T01:46:31.887Z,0
2022-10-28T01:47:31.850Z,0
2022-10-28T01:48:31.841Z,0
2022-10-28T01:49:31.852Z,0
2022-10-28T01:50:31.815Z,0
2022-10-28T01:51:31.811Z,0
2022-10-28T01:52:31.793Z,0
2022-10-28T01:53:31.786Z,0
2022-10-28T01:54:31.780Z,0
2022-10-28T01:55:31.767Z,0
2022-10-28T01:56:31.754Z,0
2022-10-28T01:57:31.743Z,0
2022-10-28T01:58:31.746Z,0
2022-10-28T01:59:31.725Z,0
2022-10-28T02:00:31.709Z,0
2022-10-28T02:01:31.696Z,0
2022-10-28T02:02:31.688Z,0
2022-10-28T02:03:31.677Z,0
2022-10-28T02:04:31.668Z,0
2022-10-28T02:05:31.655Z,0
2022-10-28T02:06:31.647Z,0
2022-10-28T02:07:31.633Z,0
2022-10-28T02:08:31.678Z,0
2022-10-28T02:09:31.618Z,0
2022-10-28T02:10:31.599Z,0
2022-10-28T02:11:31.596Z,0
2022-10-28T02:12:31.579Z,0
2022-10-28T02:13:31.565Z,0
2022-10-28T02:14:31.576Z,0
2022-10-28T02:15:31.565Z,0
2022-10-28T02:16:31.537Z,0
2022-10-28T02:17:31.523Z,0
2022-10-28T02:18:31.517Z,0
2022-10-28T02:19:31.505Z,0
2022-10-28T02:20:31.513Z,0
2022-10-28T02:21:31.485Z,0
2022-10-28T02:22:31.474Z,0
2022-10-28T02:23:31.466Z,0
2022-10-28T02:24:31.471Z,0
2022-10-28T02:25:31.436Z,0
2022-10-28T02:26:31.427Z,0
2022-10-28T02:27:31.419Z,0
2022-10-28T02:28:31.401Z,0
2022-10-28T02:29:31.391Z,0
2022-10-28T02:30:31.394Z,0
2022-10-28T02:31:31.384Z,0
2022-10-28T02:32:31.361Z,0
2022-10-28T02:33:31.347Z,0
2022-10-28T02:34:31.344Z,0
2022-10-28T02:35:31.325Z,0
2022-10-28T02:36:31.317Z,0
2022-10-28T02:37:31.307Z,0
2022-10-28T02:38:31.303Z,0
2022-10-28T02:39:31.284Z,0
2022-10-28T02:40:31.277Z,0
2022-10-28T02:41:31.265Z,0
2022-10-28T02:42:31.265Z,0
2022-10-28T02:43:31.262Z,0
2022-10-28T02:44:31.234Z,0
2022-10-28T02:45:31.216Z,0
2022-10-28T02:46:31.207Z,0
2022-10-28T02:47:31.202Z,0
2022-10-28T02:48:31.197Z,0
2022-10-28T02:49:31.204Z,0
2022-10-28T02:50:31.161Z,0
2022-10-28T02:51:31.163Z,0
2022-10-28T02:52:31.145Z,0
2022-10-28T02:53:31.126Z,0
2022-10-28T02:54:31.161Z,0
2022-10-28T02:55:31.106Z,0
2022-10-28T02:56:31.094Z,0
2022-10-28T02:57:31.089Z,0
2022-10-28T02:58:31.091Z,0
2022-10-28T02:59:31.060Z,0
2022-10-28T03:00:31.051Z,0
2022-10-28T03:01:31.045Z,0
2022-10-28T03:02:31.043Z,0
2022-10-28T03:03:31.036Z,0
2022-10-28T03:04:31.007Z,0
2022-10-28T03:05:30.997Z,0
2022-10-28T03:06:30.986Z,0
2022-10-28T03:07:30.971Z,0
2022-10-28T03:08:30.962Z,0
2022-10-28T03:09:30.952Z,0
2022-10-28T03:10:30.950Z,0
2022-10-28T03:11:30.940Z,0
2022-10-28T03:12:30.919Z,0
2022-10-28T03:13:30.904Z,0
2022-10-28T03:14:30.895Z,0
2022-10-28T03:15:30.886Z,0
2022-10-28T03:16:30.872Z,0
2022-10-28T03:17:30.859Z,0
2022-10-28T03:18:30.856Z,0
2022-10-28T03:19:30.840Z,0
2022-10-28T03:20:30.836Z,0
2022-10-28T03:21:30.815Z,0
2022-10-28T03:22:30.814Z,0
2022-10-28T03:23:30.797Z,0
2022-10-28T03:24:30.785Z,0
2022-10-28T03:25:30.787Z,0
2022-10-28T03:26:30.778Z,0
2022-10-28T03:27:30.774Z,0
2022-10-28T03:28:30.743Z,0
2022-10-28T03:29:30.732Z,0
2022-10-28T03:30:30.721Z,0
2022-10-28T03:31:30.707Z,0
2022-10-28T03:32:30.699Z,0
2022-10-28T03:33:30.686Z,0
2022-10-28T03:34:30.683Z,0
2022-10-28T03:35:30.669Z,0
2022-10-28T03:36:30.667Z,0
2022-10-28T03:37:30.633Z,0
2022-10-28T03:38:30.624Z,0
2022-10-28T03:39:30.634Z,0
2022-10-28T03:40:30.601Z,0
2022-10-28T03:41:30.593Z,0
2022-10-28T03:42:30.585Z,0
2022-10-28T03:43:30.572Z,0
2022-10-28T03:44:30.559Z,0
2022-10-28T03:45:30.561Z,0
2022-10-28T03:46:30.543Z,0
2022-10-28T03:47:30.533Z,0
2022-10-28T03:48:30.517Z,0
2022-10-28T03:49:30.511Z,0
2022-10-28T03:50:30.501Z,0
2022-10-28T03:51:30.491Z,0
2022-10-28T03:52:30.477Z,0
2022-10-28T03:53:30.474Z,0
2022-10-28T03:54:30.447Z,0
2022-10-28T03:55:30.437Z,0
2022-10-28T03:56:30.428Z,0
2022-10-28T03:57:30.417Z,0
2022-10-28T03:58:30.404Z,0
2022-10-28T03:59:30.402Z,0
2022-10-28T04:00:30.383Z,0
2022-10-28T04:01:30.380Z,0
2022-10-28T04:02:30.363Z,0
2022-10-28T04:03:30.352Z,0
2022-10-28T04:04:30.336Z,0
2022-10-28T04:05:30.366Z,0
2022-10-28T04:06:30.317Z,0
2022-10-28T04:07:30.308Z,0
2022-10-28T04:08:30.290Z,0
2022-10-28T04:09:30.283Z,0
2022-10-28T04:10:30.273Z,0
2022-10-28T04:11:30.269Z,0
2022-10-28T04:12:30.257Z,0
2022-10-28T04:13:30.236Z,0
2022-10-28T04:14:30.256Z,0
2022-10-28T04:15:30.217Z,0
2022-10-28T04:16:30.210Z,0
2022-10-28T04:17:30.206Z,0
2022-10-28T04:18:30.195Z,0
2022-10-28T04:19:30.182Z,0
2022-10-28T04:20:30.191Z,0
2022-10-28T04:21:30.160Z,0
2022-10-28T04:22:30.154Z,0
2022-10-28T04:23:30.123Z,0
2022-10-28T04:24:30.131Z,0
2022-10-28T04:25:30.105Z,0
2022-10-28T04:26:30.121Z,0
2022-10-28T04:27:30.099Z,0
2022-10-28T04:28:30.068Z,0
2022-10-28T04:29:30.077Z,0
2022-10-28T04:30:30.061Z,0
2022-10-28T04:31:30.062Z,0
2022-10-28T04:32:30.039Z,0
2022-10-28T04:33:30.029Z,0
2022-10-28T04:34:30.011Z,0
2022-10-28T04:35:29.994Z,0
2022-10-28T04:36:29.990Z,0
2022-10-28T04:37:29.986Z,0
2022-10-28T04:38:29.964Z,0
2022-10-28T04:39:29.962Z,0
2022-10-28T04:40:29.971Z,0
2022-10-28T04:41:29.954Z,0
2022-10-28T04:42:29.938Z,0
2022-10-28T04:43:29.905Z,0
2022-10-28T04:44:29.902Z,0
2022-10-28T04:45:29.891Z,0
2022-10-28T04:46:29.870Z,0
2022-10-28T04:47:29.864Z,0
2022-10-28T04:48:29.852Z,0
2022-10-28T04:49:29.851Z,0
2022-10-28T04:50:29.845Z,0
2022-10-28T04:51:29.834Z,0
2022-10-28T04:52:29.815Z,0
2022-10-28T04:53:29.812Z,0
2022-10-28T04:54:29.829Z,0
2022-10-28T04:55:29.771Z,0
2022-10-28T04:56:29.777Z,0
2022-10-28T04:57:29.769Z,0
2022-10-28T04:58:29.751Z,0
2022-10-28T04:59:29.742Z,0
2022-10-28T05:00:29.745Z,0
2022-10-28T05:01:29.751Z,0
2022-10-28T05:02:29.709Z,0
2022-10-28T05:03:29.685Z,0
2022-10-28T05:04:29.688Z,0
2022-10-28T05:05:29.695Z,0
2022-10-28T05:06:29.650Z,0
2022-10-28T05:07:29.683Z,0
2022-10-28T05:08:29.704Z,0
2022-10-28T05:09:29.628Z,0
2022-10-28T05:10:29.637Z,0
2022-10-28T05:11:29.628Z,0
2022-10-28T05:12:29.587Z,0
2022-10-28T05:13:29.611Z,0
2022-10-28T05:14:29.645Z,0
2022-10-28T05:15:29.562Z,0
2022-10-28T05:16:29.560Z,0
2022-10-28T05:17:29.541Z,0
2022-10-28T05:18:29.522Z,0
2022-10-28T05:19:29.509Z,0
2022-10-28T05:20:29.500Z,0
2022-10-28T05:21:29.499Z,0
2022-10-28T05:22:29.476Z,0
2022-10-28T05:23:29.468Z,0
2022-10-28T05:24:29.457Z,0
2022-10-28T05:25:29.457Z,0
2022-10-28T05:26:29.452Z,0
2022-10-28T05:27:29.567Z,0
2022-10-28T05:28:29.425Z,0
2022-10-28T05:29:29.401Z,0
2022-10-28T05:30:29.397Z,0
2022-10-28T05:31:29.401Z,0
2022-10-28T05:32:29.370Z,0
2022-10-28T05:33:29.366Z,0
2022-10-28T05:34:29.370Z,0
2022-10-28T05:35:29.335Z,0
2022-10-28T05:36:29.343Z,0
2022-10-28T05:37:29.372Z,0
2022-10-28T05:38:29.318Z,0
2022-10-28T05:39:29.290Z,0
2022-10-28T05:40:29.288Z,0
2022-10-28T05:41:29.271Z,0
2022-10-28T05:42:29.274Z,0
2022-10-28T05:43:29.277Z,0
2022-10-28T05:44:29.249Z,0
2022-10-28T05:46:36.951Z,0
2022-10-28T05:47:29.217Z,0
2022-10-28T05:48:29.211Z,0
2022-10-28T05:49:29.210Z,0
2022-10-28T05:50:29.178Z,0
2022-10-28T05:51:29.266Z,0
2022-10-28T05:52:29.151Z,0
2022-10-28T05:53:29.141Z,0
2022-10-28T05:54:29.141Z,0
2022-10-28T05:55:29.130Z,0
2022-10-28T05:56:29.148Z,0
2022-10-28T05:57:29.115Z,0
2022-10-28T05:58:29.082Z,0
2022-10-28T05:59:29.087Z,0
2022-10-28T06:00:29.066Z,0
2022-10-28T06:01:29.164Z,0
2022-10-28T06:02:30.149Z,0
2022-10-28T06:03:29.044Z,0
2022-10-28T06:04:29.027Z,0
2022-10-28T06:05:29.089Z,0
2022-10-28T06:06:30.036Z,0
2022-10-28T06:07:29.043Z,0
2022-10-28T06:08:28.998Z,0
2022-10-28T06:09:29.093Z,0
2022-10-28T06:10:28.962Z,0
2022-10-28T06:11:28.961Z,0
2022-10-28T06:12:29.014Z,0
2022-10-28T06:13:28.988Z,0
2022-10-28T06:14:28.907Z,0
2022-10-28T06:15:28.904Z,0
2022-10-28T06:16:28.965Z,5.62
2022-10-28T06:17:29.099Z,5.62
2022-10-28T06:18:28.884Z,5.62
2022-10-28T06:19:28.865Z,5.62
2022-10-28T06:20:28.838Z,5.62
2022-10-28T06:21:28.838Z,5.62
2022-10-28T06:22:28.830Z,5.62
2022-10-28T06:23:28.804Z,5.62
2022-10-28T06:24:28.801Z,5.62
2022-10-28T06:25:28.881Z,5.62
2022-10-28T06:26:28.812Z,11.25
2022-10-28T06:27:28.759Z,11.25
2022-10-28T06:28:28.776Z,11.25
2022-10-28T06:29:28.769Z,11.25
2022-10-28T06:30:28.863Z,11.25
2022-10-28T06:31:28.724Z,11.25
2022-10-28T06:32:28.760Z,11.25
2022-10-28T06:33:28.868Z,16.88
2022-10-28T06:34:28.723Z,16.88
2022-10-28T06:35:29.698Z,16.88
2022-10-28T06:36:28.723Z,16.88
2022-10-28T06:37:28.741Z,16.88
2022-10-28T06:38:28.643Z,16.88
2022-10-28T06:40:28.632Z,22.5
2022-10-28T06:41:28.643Z,22.5
2022-10-28T06:42:28.609Z,22.5
2022-10-28T06:43:28.634Z,22.5
2022-10-28T06:44:28.588Z,22.5
2022-10-28T06:45:28.630Z,22.5
2022-10-28T06:46:28.574Z,28.12
2022-10-28T06:47:28.567Z,28.12
2022-10-28T06:48:28.568Z,28.12
2022-10-28T06:49:28.556Z,33.75
2022-10-28T06:50:28.522Z,33.75
2022-10-28T06:51:28.506Z,33.75
2022-10-28T06:52:28.797Z,33.75
2022-10-28T06:53:28.526Z,39.38
2022-10-28T06:54:28.529Z,39.38
2022-10-28T06:55:28.465Z,39.38
2022-10-28T06:56:28.477Z,39.38
2022-10-28T06:57:28.480Z,39.38
2022-10-28T06:58:28.462Z,45
2022-10-28T06:59:28.413Z,45
2022-10-28T07:00:28.509Z,45
2022-10-28T07:01:29.406Z,45
2022-10-28T07:02:28.394Z,45
2022-10-28T07:03:28.416Z,50.62
2022-10-28T07:04:28.557Z,50.62
2022-10-28T07:05:28.348Z,50.62
2022-10-28T07:06:28.382Z,50.62
2022-10-28T07:07:28.347Z,50.62
2022-10-28T07:08:28.412Z,56.25
2022-10-28T07:09:28.323Z,56.25
2022-10-28T07:10:28.307Z,56.25
2022-10-28T07:11:28.343Z,56.25
2022-10-28T07:12:28.285Z,56.25
2022-10-28T07:13:28.305Z,56.25
2022-10-28T07:14:28.267Z,56.25
2022-10-28T07:15:28.254Z,56.25
2022-10-28T07:16:28.395Z,56.25
2022-10-28T07:17:29.246Z,56.25
2022-10-28T07:18:28.292Z,56.25
2022-10-28T07:19:28.240Z,56.25
2022-10-28T07:20:28.263Z,56.25
2022-10-28T07:21:28.231Z,56.25
2022-10-28T07:22:28.262Z,50.62
2022-10-28T07:23:28.358Z,50.62
2022-10-28T07:25:28.160Z,50.62
2022-10-28T07:26:29.184Z,56.25
2022-10-28T07:27:28.345Z,56.25
2022-10-28T07:28:28.119Z,56.25
2022-10-28T07:29:28.173Z,56.25
2022-10-28T07:30:28.171Z,56.25
2022-10-28T07:31:28.082Z,50.62
2022-10-28T07:32:28.067Z,50.62
2022-10-28T07:33:28.160Z,50.62
2022-10-28T07:34:28.150Z,56.25
2022-10-28T07:35:28.039Z,56.25
2022-10-28T07:36:28.022Z,56.25
2022-10-28T07:37:28.022Z,50.62
2022-10-28T07:38:28.013Z,50.62
2022-10-28T07:39:27.986Z,50.62
2022-10-28T07:40:28.046Z,50.62
2022-10-28T07:41:27.969Z,50.62
2022-10-28T07:42:27.965Z,45
2022-10-28T07:43:27.959Z,45
2022-10-28T07:44:27.968Z,45
2022-10-28T07:45:27.945Z,45
2022-10-28T07:46:28.150Z,45
2022-10-28T07:47:29.101Z,50.62
2022-10-28T07:48:27.920Z,50.62
2022-10-28T07:49:28.250Z,50.62
2022-10-28T07:50:27.868Z,50.62
2022-10-28T07:51:28.170Z,50.62
2022-10-28T07:52:27.920Z,56.25
2022-10-28T07:53:27.841Z,56.25
2022-10-28T07:54:27.853Z,61.88
2022-10-28T07:55:28.064Z,61.88
2022-10-28T07:56:27.833Z,67.5
2022-10-28T07:57:27.940Z,67.5
2022-10-28T07:58:27.781Z,67.5
2022-10-28T07:59:27.871Z,67.5
2022-10-28T08:00:27.780Z,67.5
2022-10-28T08:01:27.747Z,67.5
2022-10-28T08:02:27.743Z,67.5
2022-10-28T08:03:27.722Z,67.5
2022-10-28T08:04:27.710Z,67.5
2022-10-28T08:05:27.703Z,67.5
2022-10-28T08:06:27.692Z,67.5
2022-10-28T08:07:27.694Z,67.5
2022-10-28T08:08:27.679Z,67.5
2022-10-28T08:09:27.660Z,67.5
2022-10-28T08:10:27.659Z,67.5
2022-10-28T08:11:27.636Z,73.12
2022-10-28T08:12:27.622Z,73.12
2022-10-28T08:13:27.620Z,73.12
2022-10-28T08:14:27.606Z,73.12
2022-10-28T08:15:27.602Z,73.12
2022-10-28T08:16:27.584Z,73.12
2022-10-28T08:17:27.570Z,73.12
2022-10-28T08:18:27.558Z,73.12
2022-10-28T08:19:27.549Z,73.12
2022-10-28T08:20:27.538Z,73.12
2022-10-28T08:21:27.539Z,73.12
2022-10-28T08:22:27.522Z,73.12
2022-10-28T08:23:27.553Z,73.12
2022-10-28T08:24:27.496Z,73.12
2022-10-28T08:25:27.482Z,73.12
2022-10-28T08:26:27.472Z,73.12
2022-10-28T08:27:27.481Z,73.12
2022-10-28T08:28:27.457Z,78.75
2022-10-28T08:29:27.451Z,78.75
2022-10-28T08:30:27.432Z,78.75
2022-10-28T08:31:27.420Z,78.75
2022-10-28T08:32:27.424Z,78.75
2022-10-28T08:33:27.410Z,84.38
2022-10-28T08:34:27.392Z,84.38
2022-10-28T08:35:27.379Z,84.38
2022-10-28T08:36:27.372Z,84.38
2022-10-28T08:37:27.367Z,84.38
2022-10-28T08:38:27.347Z,90
2022-10-28T08:39:27.356Z,90
2022-10-28T08:40:27.335Z,90
2022-10-28T08:41:27.317Z,90
2022-10-28T08:42:27.302Z,90
2022-10-28T08:43:27.330Z,95.62
2022-10-28T08:44:27.281Z,95.62
2022-10-28T08:45:27.276Z,95.62
2022-10-28T08:46:27.258Z,95.62
2022-10-28T08:47:27.252Z,95.62
2022-10-28T08:48:27.248Z,95.62
2022-10-28T08:49:27.229Z,95.62
2022-10-28T08:50:27.217Z,95.62
2022-10-28T08:51:27.215Z,95.62
2022-10-28T08:52:27.208Z,95.62
2022-10-28T08:53:27.182Z,95.62
2022-10-28T08:54:27.174Z,95.62
2022-10-28T08:55:27.159Z,95.62
2022-10-28T08:56:27.155Z,101.25
2022-10-28T08:57:27.153Z,101.25
2022-10-28T08:58:27.150Z,101.25
2022-10-28T08:59:27.120Z,101.25
2022-10-28T09:00:27.114Z,101.25
2022-10-28T09:01:27.101Z,101.25
2022-10-28T09:02:27.087Z,106.88
2022-10-28T09:03:27.090Z,106.88
2022-10-28T09:04:27.064Z,106.88
2022-10-28T09:05:27.048Z,106.88
2022-10-28T09:06:27.048Z,106.88
2022-10-28T09:07:27.083Z,106.88
2022-10-28T09:08:27.025Z,112.5
2022-10-28T09:09:27.039Z,112.5
2022-10-28T09:10:26.998Z,112.5
2022-10-28T09:11:26.994Z,112.5
2022-10-28T09:12:27.014Z,112.5
2022-10-28T09:13:26.969Z,118.12
2022-10-28T09:14:26.977Z,112.5
2022-10-28T09:15:26.943Z,118.12
2022-10-28T09:16:26.939Z,118.12
2022-10-28T09:17:26.921Z,118.12
2022-10-28T09:18:26.911Z,118.12
2022-10-28T09:19:26.913Z,123.75
2022-10-28T09:20:26.893Z,123.75
2022-10-28T09:21:26.896Z,123.75
2022-10-28T09:22:26.868Z,123.75
2022-10-28T09:23:26.865Z,129.38
2022-10-28T09:24:26.850Z,135
2022-10-28T09:25:26.858Z,140.62
2022-10-28T09:26:26.826Z,140.62
2022-10-28T09:27:26.823Z,140.62
2022-10-28T09:28:26.805Z,146.25
2022-10-28T09:29:26.801Z,146.25
2022-10-28T09:30:26.785Z,151.88
2022-10-28T09:31:26.785Z,157.5
2022-10-28T09:32:26.766Z,157.5
2022-10-28T09:33:26.750Z,157.5
2022-10-28T09:34:26.744Z,163.12
2022-10-28T09:35:26.730Z,157.5
2022-10-28T09:36:26.785Z,157.5
2022-10-28T09:37:26.708Z,157.5
2022-10-28T09:38:26.715Z,157.5
2022-10-28T09:39:26.689Z,163.12
2022-10-28T09:40:26.673Z,157.5
2022-10-28T09:41:26.670Z,163.12
2022-10-28T09:42:26.660Z,163.12
2022-10-28T09:43:26.652Z,157.5
2022-10-28T09:44:26.656Z,151.88
2022-10-28T09:45:26.627Z,151.88
2022-10-28T09:46:26.631Z,146.25
2022-10-28T09:47:26.608Z,151.88
2022-10-28T09:48:26.599Z,157.5
2022-10-28T09:49:26.583Z,151.88
2022-10-28T09:50:26.578Z,151.88
2022-10-28T09:51:26.565Z,151.88
2022-10-28T09:52:26.565Z,140.62
2022-10-28T09:53:26.535Z,135
2022-10-28T09:54:26.531Z,140.62
2022-10-28T09:55:26.534Z,135
2022-10-28T09:56:26.520Z,135
2022-10-28T09:57:26.536Z,135
2022-10-28T09:58:26.507Z,140.62
2022-10-28T09:59:26.494Z,140.62
2022-10-28T10:00:26.469Z,140.62
2022-10-28T10:01:26.465Z,135
2022-10-28T10:02:26.462Z,135
2022-10-28T10:03:26.447Z,146.25
2022-10-28T10:04:26.425Z,151.88
2022-10-28T10:05:26.409Z,163.12
2022-10-28T10:06:26.401Z,163.12
2022-10-28T10:07:26.393Z,163.12
2022-10-28T10:08:26.394Z,157.5
2022-10-28T10:09:26.373Z,151.88
2022-10-28T10:10:26.385Z,157.5
2022-10-28T10:11:26.678Z,157.5
2022-10-28T10:12:26.340Z,157.5
2022-10-28T10:13:26.329Z,151.88
2022-10-28T10:14:26.324Z,163.12
2022-10-28T10:15:26.306Z,157.5
2022-10-28T10:16:26.299Z,157.5
2022-10-28T10:17:26.296Z,157.5
2022-10-28T10:18:26.274Z,157.5
2022-10-28T10:19:26.264Z,163.12
2022-10-28T10:20:26.254Z,157.5
2022-10-28T10:21:26.242Z,157.5
2022-10-28T10:22:26.236Z,163.12
2022-10-28T10:23:26.226Z,163.12
2022-10-28T10:24:26.234Z,163.12
2022-10-28T10:25:26.202Z,163.12
2022-10-28T10:26:26.196Z,163.12
2022-10-28T10:27:26.183Z,163.12
2022-10-28T10:28:26.168Z,163.12
2022-10-28T10:29:26.212Z,157.5
2022-10-28T10:30:26.171Z,157.5
2022-10-28T10:31:26.133Z,163.12
2022-10-28T10:32:26.126Z,168.75
2022-10-28T10:33:26.112Z,174.38
2022-10-28T10:34:33.996Z,174.38
2022-10-28T10:35:26.089Z,163.12
2022-10-28T10:36:26.104Z,146.25
2022-10-28T10:37:26.181Z,151.88
2022-10-28T10:38:26.135Z,157.5
2022-10-28T10:39:26.193Z,157.5
2022-10-28T10:40:26.050Z,163.12
2022-10-28T10:41:26.033Z,168.75
2022-10-28T10:42:26.091Z,168.75
2022-10-28T10:43:26.005Z,168.75
2022-10-28T10:44:25.994Z,174.38
2022-10-28T10:45:25.988Z,174.38
2022-10-28T10:46:25.973Z,174.38
2022-10-28T10:47:25.958Z,180
2022-10-28T10:48:25.954Z,180
2022-10-28T10:49:25.941Z,180
2022-10-28T10:50:25.939Z,185.62
2022-10-28T10:51:25.911Z,185.62
2022-10-28T10:52:25.901Z,191.25
2022-10-28T10:53:25.889Z,191.25
2022-10-28T10:54:25.877Z,196.88
2022-10-28T10:55:25.870Z,196.88
2022-10-28T10:56:25.871Z,202.5
2022-10-28T10:57:25.853Z,191.25
2022-10-28T10:58:25.834Z,185.62
2022-10-28T10:59:25.823Z,185.62
2022-10-28T11:00:25.836Z,168.75
2022-10-28T11:01:25.806Z,185.62
2022-10-28T11:02:25.792Z,196.88
2022-10-28T11:03:25.780Z,208.12
2022-10-28T11:04:25.774Z,213.75
2022-10-28T11:05:25.756Z,213.75
2022-10-28T11:06:25.750Z,230.62
2022-10-28T11:07:25.825Z,230.62
2022-10-28T11:08:25.737Z,258.75
2022-10-28T11:09:25.712Z,281.25
2022-10-28T11:10:25.698Z,286.88
2022-10-28T11:11:25.692Z,298.12
2022-10-28T11:12:25.677Z,303.75
2022-10-28T11:13:25.675Z,309.38
2022-10-28T11:14:25.662Z,315
2022-10-28T11:15:25.653Z,343.12
2022-10-28T11:16:25.674Z,365.62
2022-10-28T11:17:25.654Z,388.12
2022-10-28T11:18:25.615Z,556.88
2022-10-28T11:19:25.603Z,939.38
2022-10-28T11:20:25.602Z,1068.75
2022-10-28T11:21:25.585Z,1321.88
2022-10-28T11:22:25.578Z,1209.38
2022-10-28T11:23:25.638Z,1001.25
2022-10-28T11:24:25.565Z,472.5
2022-10-28T11:25:25.677Z,438.75
2022-10-28T11:26:25.536Z,337.5
2022-10-28T11:27:25.525Z,270
2022-10-28T11:28:25.519Z,399.38
2022-10-28T11:29:25.582Z,438.75
2022-10-28T11:30:25.494Z,534.38
2022-10-28T11:31:25.483Z,787.5
2022-10-28T11:32:25.470Z,1046.25
2022-10-28T11:33:25.507Z,1057.5
2022-10-28T11:34:25.450Z,624.38
2022-10-28T11:35:25.487Z,427.5
2022-10-28T11:36:25.459Z,601.88
2022-10-28T11:37:25.444Z,821.25
2022-10-28T11:38:25.409Z,691.88
2022-10-28T11:39:25.396Z,663.75
2022-10-28T11:40:25.397Z,793.12
2022-10-28T11:41:25.375Z,675
2022-10-28T11:42:25.370Z,618.75
2022-10-28T11:43:25.356Z,888.75
2022-10-28T11:44:25.345Z,1063.12
2022-10-28T11:45:25.332Z,1113.75
2022-10-28T11:46:25.326Z,916.88
2022-10-28T11:47:25.310Z,663.75
2022-10-28T11:48:25.302Z,618.75
2022-10-28T11:49:25.285Z,832.5
2022-10-28T11:50:25.278Z,1063.12
2022-10-28T11:51:25.303Z,658.12
2022-10-28T11:52:25.260Z,331.88
2022-10-28T11:53:25.246Z,376.88
2022-10-28T11:54:25.250Z,326.25
2022-10-28T11:55:25.224Z,506.25
2022-10-28T11:56:25.214Z,579.38
2022-10-28T11:57:25.207Z,545.62
2022-10-28T11:58:25.215Z,590.62
2022-10-28T11:59:25.184Z,596.25
2022-10-28T12:00:25.171Z,579.38
2022-10-28T12:01:25.174Z,489.38
2022-10-28T12:02:25.154Z,534.38
2022-10-28T12:03:25.143Z,528.75
2022-10-28T12:04:25.137Z,281.25
2022-10-28T12:05:25.121Z,247.5
2022-10-28T12:06:25.107Z,320.62
2022-10-28T12:07:25.119Z,360
2022-10-28T12:08:25.091Z,601.88
2022-10-28T12:09:25.083Z,624.38
2022-10-28T12:10:25.062Z,736.88
2022-10-28T12:11:25.068Z,900
2022-10-28T12:12:25.045Z,1035
2022-10-28T12:13:25.038Z,1136.25
2022-10-28T12:14:25.031Z,1243.12
2022-10-28T12:15:25.013Z,1288.12
2022-10-28T12:16:25.002Z,1243.12
2022-10-28T12:17:24.988Z,742.5
2022-10-28T12:18:24.981Z,388.12
2022-10-28T12:19:25.959Z,320.62
2022-10-28T12:20:24.957Z,315
2022-10-28T12:21:24.947Z,298.12
2022-10-28T12:22:24.996Z,275.62
2022-10-28T12:23:24.928Z,264.38
2022-10-28T12:24:24.931Z,264.38
2022-10-28T12:25:24.913Z,247.5
2022-10-28T12:26:24.913Z,241.88
2022-10-28T12:27:24.936Z,241.88
2022-10-28T12:28:24.878Z,236.25
2022-10-28T12:29:24.868Z,230.62
2022-10-28T12:30:24.861Z,225
2022-10-28T12:31:25.433Z,225
2022-10-28T12:32:24.834Z,219.38
2022-10-28T12:33:24.833Z,219.38
2022-10-28T12:34:24.832Z,225
2022-10-28T12:35:24.851Z,225
2022-10-28T12:36:24.792Z,225
2022-10-28T12:37:24.784Z,219.38
2022-10-28T12:38:24.771Z,219.38
2022-10-28T12:39:24.761Z,213.75
2022-10-28T12:40:24.758Z,208.12
2022-10-28T12:41:24.738Z,202.5
2022-10-28T12:42:24.729Z,191.25
2022-10-28T12:43:24.731Z,185.62
2022-10-28T12:44:24.710Z,185.62
2022-10-28T12:45:24.704Z,180
2022-10-28T12:46:24.696Z,174.38
2022-10-28T12:47:24.675Z,174.38
2022-10-28T12:48:24.662Z,174.38
2022-10-28T12:49:24.686Z,168.75
2022-10-28T12:50:24.645Z,168.75
2022-10-28T12:51:24.631Z,168.75
2022-10-28T12:52:24.633Z,163.12
2022-10-28T12:53:24.611Z,157.5
2022-10-28T12:54:24.604Z,157.5
2022-10-28T12:55:24.588Z,151.88
2022-10-28T12:56:24.576Z,146.25
2022-10-28T12:57:24.604Z,146.25
2022-10-28T12:58:24.556Z,146.25
2022-10-28T12:59:24.544Z,146.25
2022-10-28T13:00:24.550Z,146.25
2022-10-28T13:01:24.521Z,140.62
2022-10-28T13:02:24.523Z,135
2022-10-28T13:03:24.506Z,135
2022-10-28T13:04:24.503Z,135
2022-10-28T13:05:24.478Z,129.38
2022-10-28T13:06:24.489Z,123.75
2022-10-28T13:07:24.489Z,123.75
2022-10-28T13:08:24.448Z,123.75
2022-10-28T13:09:24.477Z,118.12
2022-10-28T13:10:24.428Z,118.12
2022-10-28T13:11:24.444Z,118.12
2022-10-28T13:12:24.421Z,118.12
2022-10-28T13:13:24.411Z,118.12
2022-10-28T13:14:24.385Z,118.12
2022-10-28T13:15:24.390Z,118.12
2022-10-28T13:16:24.362Z,118.12
2022-10-28T13:17:24.377Z,118.12
2022-10-28T13:18:24.369Z,123.75
2022-10-28T13:19:24.341Z,123.75
2022-10-28T13:20:24.326Z,123.75
2022-10-28T13:21:24.306Z,123.75
2022-10-28T13:22:24.313Z,129.38
2022-10-28T13:23:24.287Z,129.38
2022-10-28T13:24:24.276Z,129.38
2022-10-28T13:25:24.279Z,129.38
2022-10-28T13:26:24.254Z,135
2022-10-28T13:27:24.246Z,135
2022-10-28T13:28:24.229Z,135
2022-10-28T13:29:24.222Z,135
2022-10-28T13:30:24.219Z,135
2022-10-28T13:31:24.238Z,135
2022-10-28T13:32:24.266Z,135
2022-10-28T13:33:24.179Z,135
2022-10-28T13:34:24.167Z,135
2022-10-28T13:35:24.298Z,135
2022-10-28T13:36:24.151Z,135
2022-10-28T13:37:24.140Z,135
2022-10-28T13:38:24.127Z,135
2022-10-28T13:39:24.132Z,129.38
2022-10-28T13:40:24.104Z,129.38
2022-10-28T13:41:24.102Z,129.38
2022-10-28T13:42:24.087Z,129.38